Time;durP1;ratioP1;P1;durP2;ratioP2;P2;SDS_P1;SDS_P2;PMS_P1;PMS_P2;Temp;Humidity;BMP_temperature;BMP_pressure;BME280_temperature;BME280_humidity;BME280_pressure;Samples;Min_cycle;Max_cycle;Signal;HPM_P1;HPM_P2
2024/01/06 00:00:30;;;;;;;;;;;18.20;62.00;;;;;;5084500;28;44125;-88
2024/01/06 00:02:55;;;;;;;;;;;18.10;62.70;;;;;;5084765;28;42938;-88
2024/01/06 00:05:21;;;;;;;;;;;18.10;61.90;;;;;;5085313;28;43026;-87
2024/01/06 00:07:46;;;;;;;;;;;18.10;61.80;;;;;;5085713;28;42934;-87
2024/01/06 00:10:12;;;;;;;;;;;18.10;61.90;;;;;;5084775;28;43631;-87
2024/01/06 00:12:37;;;;;;;;;;;18.10;61.90;;;;;;5085460;28;42944;-87
2024/01/06 00:15:03;;;;;;;;;;;18.10;61.90;;;;;;5085407;28;43436;-88
2024/01/06 00:17:29;;;;;;;;;;;18.00;61.80;;;;;;5083755;28;42989;-86
2024/01/06 00:19:54;;;;;;;;;;;18.00;61.80;;;;;;5084958;28;43048;-85
2024/01/06 00:22:20;;;;;;;;;;;18.10;61.80;;;;;;5088567;28;42889;-86
2024/01/06 00:24:46;;;;;;;;;;;18.10;61.80;;;;;;5094905;28;44008;-83
2024/01/06 00:27:11;;;;;;;;;;;18.10;61.80;;;;;;5084530;28;42954;-86
2024/01/06 00:29:37;;;;;;;;;;;18.10;61.80;;;;;;5084283;28;44259;-85
2024/01/06 00:32:02;;;;;;;;;;;18.10;61.80;;;;;;5084330;28;43059;-86
2024/01/06 00:34:28;;;;;;;;;;;18.10;61.70;;;;;;5081261;28;44238;-87
2024/01/06 00:36:53;;;;;;;;;;;18.10;61.80;;;;;;5084409;27;43119;-88
2024/01/06 00:39:20;;;;;;;;;;;18.10;62.60;;;;;;5084128;28;43657;-87
2024/01/06 00:41:45;;;;;;;;;;;18.10;62.40;;;;;;5085318;28;43008;-86
2024/01/06 00:44:11;;;;;;;;;;;18.10;62.70;;;;;;5053209;28;43688;-86
2024/01/06 00:46:37;;;;;;;;;;;18.20;62.60;;;;;;5085140;28;42819;-85
2024/01/06 00:49:03;;;;;;;;;;;18.10;62.50;;;;;;5084630;28;42986;-86
2024/01/06 00:51:29;;;;;;;;;;;18.10;61.70;;;;;;5081408;28;43685;-85
2024/01/06 00:53:54;;;;;;;;;;;18.30;62.60;;;;;;5077304;28;43676;-85
2024/01/06 00:56:20;;;;;;;;;;;18.20;62.50;;;;;;5065900;28;43588;-85
2024/01/06 00:58:45;;;;;;;;;;;18.10;61.80;;;;;;5084288;28;43112;-85
2024/01/06 01:01:11;;;;;;;;;;;18.10;61.80;;;;;;5084698;28;43264;-85
2024/01/06 01:03:36;;;;;;;;;;;18.10;61.80;;;;;;5060242;28;44753;-87
2024/01/06 01:06:02;;;;;;;;;;;18.00;61.70;;;;;;5065023;28;43060;-86
2024/01/06 01:08:27;;;;;;;;;;;18.10;62.50;;;;;;5064922;28;45544;-85
2024/01/06 01:10:53;;;;;;;;;;;18.20;62.70;;;;;;5084656;28;42905;-89
2024/01/06 01:13:19;;;;;;;;;;;18.10;62.60;;;;;;5084031;28;43139;-84
2024/01/06 01:15:44;;;;;;;;;;;18.10;62.70;;;;;;5083861;28;42914;-87
2024/01/06 01:18:10;;;;;;;;;;;18.10;61.70;;;;;;5065041;28;44266;-85
2024/01/06 01:20:35;;;;;;;;;;;18.10;61.80;;;;;;5083953;28;42904;-88
2024/01/06 01:23:01;;;;;;;;;;;18.10;62.50;;;;;;5083492;28;44074;-86
2024/01/06 01:25:26;;;;;;;;;;;18.10;61.80;;;;;;5083893;28;42850;-85
2024/01/06 01:27:52;;;;;;;;;;;18.10;61.70;;;;;;5083965;28;43031;-88
2024/01/06 01:30:17;;;;;;;;;;;18.10;61.70;;;;;;5069139;28;42997;-88
2024/01/06 01:32:43;;;;;;;;;;;18.10;62.50;;;;;;5081368;28;43264;-88
2024/01/06 01:35:08;;;;;;;;;;;18.10;62.50;;;;;;5083784;28;43148;-85
2024/01/06 01:37:34;;;;;;;;;;;18.10;61.60;;;;;;5083465;28;42969;-88
2024/01/06 01:39:59;;;;;;;;;;;18.10;62.90;;;;;;5065295;28;43011;-89
2024/01/06 01:42:25;;;;;;;;;;;18.10;62.70;;;;;;5082835;28;43018;-87
2024/01/06 01:44:50;;;;;;;;;;;18.10;62.70;;;;;;5071062;27;43030;-87
2024/01/06 01:47:18;;;;;;;;;;;21.10;63.70;;;;;;5064708;28;43010;-89
2024/01/06 01:49:46;;;;;;;;;;;18.10;61.70;;;;;;5071306;28;43009;-88
2024/01/06 01:52:12;;;;;;;;;;;18.10;61.60;;;;;;5079605;28;43804;-88
2024/01/06 01:54:38;;;;;;;;;;;18.10;62.30;;;;;;5076374;28;43178;-86
2024/01/06 01:57:03;;;;;;;;;;;18.10;61.70;;;;;;5084046;28;42885;-88
2024/01/06 01:59:29;;;;;;;;;;;18.10;62.70;;;;;;5086878;28;43147;-88
2024/01/06 02:01:55;;;;;;;;;;;18.10;62.40;;;;;;5087058;28;43228;-88
2024/01/06 02:04:21;;;;;;;;;;;18.10;62.60;;;;;;5069517;28;44115;-85
2024/01/06 02:06:46;;;;;;;;;;;18.10;61.70;;;;;;5079260;28;44190;-85
2024/01/06 02:09:12;;;;;;;;;;;18.10;61.60;;;;;;5087244;28;43269;-87
2024/01/06 02:11:38;;;;;;;;;;;18.10;61.70;;;;;;5086732;28;42877;-88
2024/01/06 02:14:03;;;;;;;;;;;18.10;62.50;;;;;;5085695;28;42949;-87
2024/01/06 02:16:29;;;;;;;;;;;18.10;62.50;;;;;;5068076;28;46323;-88
2024/01/06 02:18:55;;;;;;;;;;;18.10;61.80;;;;;;5085835;28;42956;-87
2024/01/06 02:21:21;;;;;;;;;;;18.10;61.70;;;;;;5054577;28;45280;-88
2024/01/06 02:23:47;;;;;;;;;;;18.10;62.50;;;;;;5086367;28;42954;-89
2024/01/06 02:26:14;;;;;;;;;;;18.10;62.40;;;;;;5085967;28;43761;-89
2024/01/06 02:28:40;;;;;;;;;;;18.10;61.70;;;;;;5086065;28;43086;-89
2024/01/06 02:31:06;;;;;;;;;;;18.10;63.10;;;;;;5086853;28;43683;-91
2024/01/06 02:33:31;;;;;;;;;;;18.10;61.60;;;;;;5086559;28;43269;-87
2024/01/06 02:35:57;;;;;;;;;;;18.10;62.60;;;;;;5085914;28;42905;-91
2024/01/06 02:38:23;;;;;;;;;;;18.10;61.60;;;;;;5085445;28;42996;-87
2024/01/06 02:40:48;;;;;;;;;;;18.00;62.70;;;;;;5085919;28;42929;-88
2024/01/06 02:43:14;;;;;;;;;;;18.10;62.50;;;;;;5089144;28;43003;-89
2024/01/06 02:45:39;;;;;;;;;;;18.00;61.60;;;;;;5091996;28;43658;-84
2024/01/06 02:48:05;;;;;;;;;;;18.10;62.70;;;;;;5086294;28;42920;-84
2024/01/06 02:50:30;;;;;;;;;;;18.10;62.60;;;;;;5085322;28;43320;-85
2024/01/06 02:52:56;;;;;;;;;;;18.00;62.70;;;;;;5085316;28;43585;-85
2024/01/06 02:55:21;;;;;;;;;;;18.00;62.70;;;;;;5072165;28;42895;-85
2024/01/06 02:57:47;;;;;;;;;;;18.00;61.60;;;;;;5085874;28;43472;-86
2024/01/06 03:00:12;;;;;;;;;;;18.00;61.60;;;;;;5065988;28;44472;-84
2024/01/06 03:02:41;;;;;;;;;;;18.10;62.50;;;;;;5084588;28;44162;-85
2024/01/06 03:05:07;;;;;;;;;;;18.00;62.70;;;;;;5084186;28;45600;-85
2024/01/06 03:07:33;;;;;;;;;;;18.10;62.30;;;;;;5085824;28;42931;-86
2024/01/06 03:09:58;;;;;;;;;;;18.00;61.70;;;;;;5085920;28;43498;-85
2024/01/06 03:12:24;;;;;;;;;;;18.00;61.70;;;;;;5085441;28;42970;-85
2024/01/06 03:14:49;;;;;;;;;;;18.00;61.60;;;;;;5085368;28;42982;-85
2024/01/06 03:17:15;;;;;;;;;;;18.00;61.60;;;;;;5085118;28;43046;-85
2024/01/06 03:19:40;;;;;;;;;;;18.00;61.60;;;;;;5067170;28;45501;-85
2024/01/06 03:22:06;;;;;;;;;;;18.00;61.60;;;;;;5066495;28;43058;-85
2024/01/06 03:24:31;;;;;;;;;;;18.00;61.60;;;;;;5084757;28;43624;-86
2024/01/06 03:26:57;;;;;;;;;;;18.00;61.60;;;;;;5084326;28;42945;-88
2024/01/06 03:29:22;;;;;;;;;;;18.00;61.60;;;;;;5085235;28;42898;-88
2024/01/06 03:31:48;;;;;;;;;;;18.00;61.60;;;;;;5086264;28;42908;-87
2024/01/06 03:34:14;;;;;;;;;;;18.00;61.70;;;;;;5084710;28;43028;-88
2024/01/06 03:36:40;;;;;;;;;;;18.00;61.60;;;;;;5084931;28;43440;-87
2024/01/06 03:39:05;;;;;;;;;;;17.90;61.60;;;;;;5083746;28;43019;-85
2024/01/06 03:41:31;;;;;;;;;;;18.00;61.60;;;;;;5084307;28;43104;-86
2024/01/06 03:43:57;;;;;;;;;;;18.00;62.50;;;;;;5083711;28;43726;-87
2024/01/06 03:46:22;;;;;;;;;;;18.00;62.60;;;;;;5085277;28;42992;-88
2024/01/06 03:48:48;;;;;;;;;;;18.00;62.50;;;;;;5085103;28;43630;-87
2024/01/06 03:51:14;;;;;;;;;;;18.00;61.60;;;;;;5085090;28;42936;-86
2024/01/06 03:53:42;;;;;;;;;;;18.00;61.70;;;;;;5080232;28;43069;-87
2024/01/06 03:56:08;;;;;;;;;;;18.00;61.70;;;;;;5077383;28;42878;-87
2024/01/06 03:58:33;;;;;;;;;;;18.00;61.60;;;;;;5085221;28;42894;-86
2024/01/06 04:00:59;;;;;;;;;;;18.00;62.40;;;;;;5085262;28;42898;-85
2024/01/06 04:03:24;;;;;;;;;;;18.00;61.60;;;;;;5084653;28;43466;-84
2024/01/06 04:05:50;;;;;;;;;;;18.00;62.70;;;;;;5084596;28;42902;-85
2024/01/06 04:08:15;;;;;;;;;;;18.00;62.40;;;;;;5083974;28;42925;-84
2024/01/06 04:10:41;;;;;;;;;;;18.00;61.60;;;;;;5084011;28;42842;-84
2024/01/06 04:13:12;;;;;;;;;;;18.00;62.30;;;;;;5083603;28;43224;-83
2024/01/06 04:15:38;;;;;;;;;;;18.00;62.10;;;;;;5085319;28;42980;-86
2024/01/06 04:18:04;;;;;;;;;;;18.00;62.30;;;;;;5077264;28;43035;-89
2024/01/06 04:20:30;;;;;;;;;;;18.00;61.60;;;;;;5076511;28;42982;-90
2024/01/06 04:22:56;;;;;;;;;;;18.00;61.60;;;;;;5062361;28;44798;-90
2024/01/06 04:25:21;;;;;;;;;;;18.00;61.60;;;;;;5078133;28;43140;-86
2024/01/06 04:27:48;;;;;;;;;;;18.00;61.60;;;;;;5083565;28;43270;-87
2024/01/06 04:30:14;;;;;;;;;;;18.00;61.60;;;;;;5065336;28;42923;-87
2024/01/06 04:32:40;;;;;;;;;;;18.00;62.00;;;;;;5065822;28;45082;-87
2024/01/06 04:35:05;;;;;;;;;;;18.00;61.50;;;;;;5066108;28;42931;-86
2024/01/06 04:37:31;;;;;;;;;;;18.00;61.60;;;;;;5083717;28;44997;-85
2024/01/06 04:39:57;;;;;;;;;;;18.00;61.60;;;;;;5083436;28;43124;-87
2024/01/06 04:42:22;;;;;;;;;;;18.00;61.70;;;;;;5082394;27;44724;-85
2024/01/06 04:44:48;;;;;;;;;;;18.00;61.50;;;;;;5083731;28;42921;-84
2024/01/06 04:47:13;;;;;;;;;;;18.00;61.60;;;;;;5082990;28;43154;-85
2024/01/06 04:49:39;;;;;;;;;;;18.00;62.50;;;;;;5083270;28;43004;-85
2024/01/06 04:52:04;;;;;;;;;;;17.90;61.50;;;;;;5083646;28;43626;-86
2024/01/06 04:54:30;;;;;;;;;;;18.00;61.60;;;;;;5072686;28;44036;-85
2024/01/06 04:56:56;;;;;;;;;;;18.00;62.40;;;;;;5082059;28;43612;-85
2024/01/06 04:59:21;;;;;;;;;;;18.00;61.60;;;;;;5066522;28;43097;-85
2024/01/06 05:01:47;;;;;;;;;;;18.00;61.50;;;;;;5083890;28;43401;-86
2024/01/06 05:04:12;;;;;;;;;;;18.00;61.50;;;;;;5087259;28;43108;-87
2024/01/06 05:06:38;;;;;;;;;;;18.00;61.60;;;;;;5083439;28;43128;-86
2024/01/06 05:09:03;;;;;;;;;;;18.00;62.50;;;;;;5082428;28;43009;-86
2024/01/06 05:11:29;;;;;;;;;;;18.00;61.50;;;;;;5081996;28;42878;-86
2024/01/06 05:13:54;;;;;;;;;;;18.00;61.50;;;;;;5065359;28;43033;-87
2024/01/06 05:16:20;;;;;;;;;;;18.00;61.60;;;;;;5072098;28;43543;-87
2024/01/06 05:18:46;;;;;;;;;;;18.00;61.40;;;;;;5084404;28;42854;-88
2024/01/06 05:21:11;;;;;;;;;;;18.00;61.50;;;;;;5083400;28;43841;-87
2024/01/06 05:23:37;;;;;;;;;;;18.00;61.60;;;;;;5084884;27;43009;-87
2024/01/06 05:26:02;;;;;;;;;;;18.00;62.50;;;;;;5084400;28;43433;-85
2024/01/06 05:28:28;;;;;;;;;;;18.00;62.20;;;;;;5087369;28;42913;-87
2024/01/06 05:30:53;;;;;;;;;;;18.00;62.20;;;;;;5087199;28;43867;-86
2024/01/06 05:33:19;;;;;;;;;;;18.00;62.20;;;;;;5087237;28;42867;-85
2024/01/06 05:35:44;;;;;;;;;;;18.00;61.50;;;;;;5086625;28;44149;-87
2024/01/06 05:38:10;;;;;;;;;;;18.10;62.40;;;;;;5086919;28;42892;-84
2024/01/06 05:40:36;;;;;;;;;;;18.00;61.50;;;;;;5086398;28;42953;-85
2024/01/06 05:43:01;;;;;;;;;;;18.00;62.40;;;;;;5087486;28;43884;-86
2024/01/06 05:45:27;;;;;;;;;;;14.70;60.50;;;;;;5086835;28;44365;-87
2024/01/06 05:47:52;;;;;;;;;;;18.00;61.60;;;;;;5086489;28;43018;-85
2024/01/06 05:50:18;;;;;;;;;;;18.00;62.30;;;;;;5086808;28;42996;-88
2024/01/06 05:52:44;;;;;;;;;;;18.00;61.60;;;;;;5087522;28;43919;-88
2024/01/06 05:55:09;;;;;;;;;;;18.10;62.40;;;;;;5073980;28;43026;-86
2024/01/06 05:57:35;;;;;;;;;;;18.00;61.50;;;;;;5065162;28;42845;-89
2024/01/06 06:00:01;;;;;;;;;;;18.00;62.40;;;;;;5083862;28;43618;-86
2024/01/06 06:02:27;;;;;;;;;;;18.00;61.70;;;;;;5084195;28;44327;-87
2024/01/06 06:04:52;;;;;;;;;;;18.00;61.60;;;;;;5087145;28;43931;-88
2024/01/06 06:07:18;;;;;;;;;;;18.00;61.50;;;;;;5086312;28;43257;-88
2024/01/06 06:09:46;;;;;;;;;;;18.00;62.20;;;;;;5085919;28;43505;-88
2024/01/06 06:12:12;;;;;;;;;;;18.00;62.30;;;;;;5087130;28;42963;-86
2024/01/06 06:14:38;;;;;;;;;;;18.10;62.50;;;;;;5086170;28;43086;-87
2024/01/06 06:17:03;;;;;;;;;;;18.00;62.10;;;;;;5085875;28;43025;-87
2024/01/06 06:19:29;;;;;;;;;;;17.90;61.50;;;;;;5085646;28;43516;-85
2024/01/06 06:21:55;;;;;;;;;;;18.00;61.60;;;;;;5087102;28;42799;-85
2024/01/06 06:24:20;;;;;;;;;;;18.00;61.40;;;;;;5086208;28;42993;-84
2024/01/06 06:26:46;;;;;;;;;;;18.00;61.50;;;;;;5086464;28;43068;-85
2024/01/06 06:29:11;;;;;;;;;;;18.00;62.40;;;;;;5085844;28;43728;-85
2024/01/06 06:31:36;;;;;;;;;;;18.00;61.40;;;;;;5065299;28;42926;-86
2024/01/06 06:34:02;;;;;;;;;;;18.00;61.40;;;;;;5082209;27;43028;-86
2024/01/06 06:36:29;;;;;;;;;;;18.00;61.40;;;;;;5086720;28;42935;-84
2024/01/06 06:38:54;;;;;;;;;;;18.00;61.30;;;;;;5083486;28;43300;-89
2024/01/06 06:41:20;;;;;;;;;;;18.00;61.40;;;;;;5086165;28;42988;-88
2024/01/06 06:43:45;;;;;;;;;;;18.00;62.10;;;;;;5085526;28;42860;-87
2024/01/06 06:46:11;;;;;;;;;;;18.00;61.50;;;;;;5083432;28;42972;-87
2024/01/06 06:48:36;;;;;;;;;;;18.00;62.30;;;;;;5084767;28;43403;-88
2024/01/06 06:51:02;;;;;;;;;;;18.00;62.40;;;;;;5085970;28;43355;-86
2024/01/06 06:53:28;;;;;;;;;;;18.00;61.30;;;;;;5082310;28;43645;-88
2024/01/06 06:55:53;;;;;;;;;;;18.00;62.40;;;;;;5075863;28;43057;-87
2024/01/06 06:58:19;;;;;;;;;;;18.00;61.30;;;;;;5085159;28;43047;-84
2024/01/06 07:00:44;;;;;;;;;;;17.90;61.30;;;;;;5082905;28;43655;-90
2024/01/06 07:03:10;;;;;;;;;;;18.00;61.40;;;;;;5086028;28;42994;-89
2024/01/06 07:05:35;;;;;;;;;;;18.00;61.30;;;;;;5082025;28;42933;-88
2024/01/06 07:08:01;;;;;;;;;;;18.10;62.30;;;;;;5081238;28;43503;-88
2024/01/06 07:10:27;;;;;;;;;;;18.00;61.30;;;;;;5081024;28;43053;-87
2024/01/06 07:12:53;;;;;;;;;;;18.00;61.30;;;;;;5085476;28;43227;-88
2024/01/06 07:15:18;;;;;;;;;;;18.00;61.30;;;;;;5066803;28;43222;-89
2024/01/06 07:17:44;;;;;;;;;;;18.00;61.00;;;;;;5066118;28;44234;-89
2024/01/06 07:20:09;;;;;;;;;;;18.00;57.90;;;;;;5085774;28;43001;-85
2024/01/06 07:22:36;;;;;;;;;;;18.00;58.40;;;;;;5069922;28;44289;-91
2024/01/06 07:25:01;;;;;;;;;;;17.80;57.30;;;;;;5077166;28;42988;-89
2024/01/06 07:27:27;;;;;;;;;;;17.60;57.00;;;;;;5077857;28;43953;-88
2024/01/06 07:29:52;;;;;;;;;;;17.50;56.90;;;;;;5084719;28;42970;-89
2024/01/06 07:32:21;;;;;;;;;;;17.40;57.00;;;;;;5084853;28;42927;-89
2024/01/06 07:34:46;;;;;;;;;;;17.30;56.50;;;;;;5060271;28;43059;-87
2024/01/06 07:37:12;;;;;;;;;;;17.20;56.40;;;;;;5080475;28;42883;-87
2024/01/06 07:39:37;;;;;;;;;;;17.10;55.90;;;;;;5076647;28;43075;-87
2024/01/06 07:42:03;;;;;;;;;;;17.00;56.20;;;;;;5065465;28;44753;-86
2024/01/06 07:44:36;;;;;;;;;;;16.80;56.30;;;;;;5074250;28;43092;-87
2024/01/06 07:47:04;;;;;;;;;;;16.70;56.80;;;;;;5067719;28;43979;-88
2024/01/06 07:49:36;;;;;;;;;;;16.60;57.70;;;;;;5066903;28;43016;-88
2024/01/06 07:52:07;;;;;;;;;;;16.70;57.60;;;;;;5074524;27;44497;-87
2024/01/06 07:54:33;;;;;;;;;;;16.70;57.80;;;;;;5068689;28;42940;-88
2024/01/06 07:56:59;;;;;;;;;;;16.60;57.10;;;;;;5070186;28;43796;-89
2024/01/06 07:59:24;;;;;;;;;;;16.60;56.80;;;;;;5065855;28;43225;-80
2024/01/06 08:01:50;;;;;;;;;;;16.60;57.30;;;;;;5069984;28;42932;-81
2024/01/06 08:04:15;;;;;;;;;;;16.70;58.50;;;;;;5078610;28;43023;-81
2024/01/06 08:06:41;;;;;;;;;;;16.80;59.00;;;;;;5083864;28;43347;-80
2024/01/06 08:09:08;;;;;;;;;;;16.90;59.20;;;;;;5079881;28;42937;-80
2024/01/06 08:11:33;;;;;;;;;;;17.00;59.20;;;;;;5082115;28;42918;-83
2024/01/06 08:13:59;;;;;;;;;;;17.10;58.50;;;;;;5079911;28;43043;-79
2024/01/06 08:16:24;;;;;;;;;;;17.20;58.90;;;;;;5078181;28;45205;-83
2024/01/06 08:18:50;;;;;;;;;;;17.20;58.30;;;;;;5076002;28;43231;-79
2024/01/06 08:21:15;;;;;;;;;;;17.30;58.80;;;;;;5080599;28;43341;-82
2024/01/06 08:23:41;;;;;;;;;;;17.30;58.60;;;;;;5082233;28;42945;-79
2024/01/06 08:26:06;;;;;;;;;;;17.40;58.10;;;;;;5078147;28;42949;-84
2024/01/06 08:28:32;;;;;;;;;;;17.40;58.10;;;;;;5084010;28;42985;-79
2024/01/06 08:30:57;;;;;;;;;;;17.40;58.60;;;;;;5079705;28;43558;-80
2024/01/06 08:33:23;;;;;;;;;;;17.40;59.30;;;;;;5083111;28;42948;-80
2024/01/06 08:35:48;;;;;;;;;;;17.50;59.10;;;;;;5081820;28;42972;-83
2024/01/06 08:38:14;;;;;;;;;;;17.50;59.30;;;;;;5082243;28;43719;-81
2024/01/06 08:40:39;;;;;;;;;;;17.50;58.80;;;;;;5082231;28;43259;-79
2024/01/06 08:43:05;;;;;;;;;;;17.50;58.80;;;;;;5081460;28;43050;-81
2024/01/06 08:45:30;;;;;;;;;;;17.60;59.30;;;;;;5082828;28;42998;-80
2024/01/06 08:47:56;;;;;;;;;;;17.60;59.30;;;;;;5076593;28;43267;-79
2024/01/06 08:50:22;;;;;;;;;;;17.60;59.30;;;;;;5074134;28;43336;-80
2024/01/06 08:52:47;;;;;;;;;;;17.60;59.30;;;;;;5080539;28;43037;-82
2024/01/06 08:55:13;;;;;;;;;;;17.60;59.30;;;;;;5073348;28;43309;-82
2024/01/06 08:57:38;;;;;;;;;;;17.60;59.40;;;;;;5086606;27;42925;-80
2024/01/06 09:00:04;;;;;;;;;;;17.60;58.10;;;;;;5088020;28;42942;-82
2024/01/06 09:02:31;;;;;;;;;;;17.50;57.00;;;;;;5082863;27;43225;-87
2024/01/06 09:04:56;;;;;;;;;;;17.40;56.80;;;;;;5101189;28;42970;-83
2024/01/06 09:07:22;;;;;;;;;;;17.30;56.80;;;;;;5084731;28;43213;-79
2024/01/06 09:09:47;;;;;;;;;;;17.20;58.60;;;;;;5084312;28;43490;-84
2024/01/06 09:12:13;;;;;;;;;;;17.20;59.50;;;;;;5075596;28;43129;-87
2024/01/06 09:14:38;;;;;;;;;;;17.30;59.60;;;;;;5073715;28;44288;-87
2024/01/06 09:17:04;;;;;;;;;;;17.40;59.60;;;;;;5080450;28;42891;-82
2024/01/06 09:19:30;;;;;;;;;;;17.40;59.50;;;;;;5075731;28;42988;-85
2024/01/06 09:21:56;;;;;;;;;;;17.50;59.50;;;;;;5081345;28;43304;-84
2024/01/06 09:24:21;;;;;;;;;;;17.50;58.80;;;;;;5083629;28;43081;-84
2024/01/06 09:26:48;;;;;;;;;;;17.50;59.30;;;;;;5086541;28;42988;-85
2024/01/06 09:29:13;;;;;;;;;;;17.60;58.70;;;;;;5084107;28;43660;-86
2024/01/06 09:31:39;;;;;;;;;;;17.60;59.10;;;;;;5082150;28;43087;-80
2024/01/06 09:34:05;;;;;;;;;;;17.60;59.10;;;;;;5084599;28;43846;-83
2024/01/06 09:36:31;;;;;;;;;;;17.60;59.10;;;;;;5080444;28;42987;-84
2024/01/06 09:38:56;;;;;;;;;;;17.60;59.10;;;;;;5080357;28;43106;-85
2024/01/06 09:41:24;;;;;;;;;;;17.60;59.00;;;;;;5089140;28;60891;-84
2024/01/06 09:43:50;;;;;;;;;;;17.60;59.00;;;;;;5082387;28;43914;-84
2024/01/06 09:46:26;;;;;;;;;;;17.60;59.00;;;;;;5086046;28;42961;-80
2024/01/06 09:48:52;;;;;;;;;;;17.60;58.90;;;;;;5085022;28;44411;-84
2024/01/06 09:51:19;;;;;;;;;;;17.60;58.90;;;;;;5084587;28;43057;-84
2024/01/06 09:53:49;;;;;;;;;;;17.60;59.00;;;;;;5079455;28;43234;-84
2024/01/06 09:56:17;;;;;;;;;;;17.60;58.90;;;;;;5074676;28;43082;-84
2024/01/06 09:58:44;;;;;;;;;;;17.70;59.00;;;;;;5077937;28;43576;-84
2024/01/06 10:01:10;;;;;;;;;;;17.60;59.00;;;;;;5082646;28;42966;-82
2024/01/06 10:03:36;;;;;;;;;;;17.70;59.00;;;;;;5081682;28;43307;-87
2024/01/06 10:06:03;;;;;;;;;;;17.70;59.50;;;;;;5084619;28;43324;-87
2024/01/06 10:08:29;;;;;;;;;;;17.40;58.40;;;;;;5083305;28;43116;-84
2024/01/06 10:10:54;;;;;;;;;;;17.70;59.00;;;;;;5083536;28;43004;-87
2024/01/06 10:13:20;;;;;;;;;;;17.60;58.40;;;;;;5083936;28;43058;-87
2024/01/06 10:15:46;;;;;;;;;;;17.60;58.40;;;;;;5085641;28;43267;-79
2024/01/06 10:18:12;;;;;;;;;;;17.60;58.40;;;;;;5082422;28;43473;-83
2024/01/06 10:20:38;;;;;;;;;;;17.70;59.00;;;;;;5085714;28;43243;-88
2024/01/06 10:23:06;;;;;;;;;;;17.70;59.00;;;;;;5077652;28;43396;-87
2024/01/06 10:25:32;;;;;;;;;;;17.70;58.90;;;;;;5085647;28;43189;-86
2024/01/06 10:28:00;;;;;;;;;;;17.80;59.00;;;;;;5082195;28;42954;-81
2024/01/06 10:30:25;;;;;;;;;;;17.70;58.40;;;;;;5080533;28;42917;-80
2024/01/06 10:32:51;;;;;;;;;;;17.70;59.00;;;;;;5083063;28;43680;-79
2024/01/06 10:35:18;;;;;;;;;;;17.70;58.90;;;;;;5065608;28;43031;-79
2024/01/06 10:37:43;;;;;;;;;;;17.70;58.90;;;;;;5083101;28;43271;-80
2024/01/06 10:40:10;;;;;;;;;;;17.70;58.90;;;;;;5081691;28;42989;-78
2024/01/06 10:42:36;;;;;;;;;;;17.60;58.80;;;;;;5076562;28;43940;-79
2024/01/06 10:45:02;;;;;;;;;;;17.70;58.90;;;;;;5084934;28;43101;-79
2024/01/06 10:47:30;;;;;;;;;;;17.70;58.40;;;;;;5082083;28;44915;-77
2024/01/06 10:49:58;;;;;;;;;;;17.60;58.80;;;;;;5085193;28;42955;-79
2024/01/06 10:52:25;;;;;;;;;;;17.70;58.90;;;;;;5084798;28;42903;-80
2024/01/06 10:54:51;;;;;;;;;;;17.70;59.30;;;;;;5063464;28;42965;-80
2024/01/06 10:57:18;;;;;;;;;;;17.70;59.00;;;;;;5083377;28;43210;-79
2024/01/06 10:59:45;;;;;;;;;;;17.70;58.40;;;;;;5081206;28;43195;-79
2024/01/06 11:02:11;;;;;;;;;;;17.70;58.40;;;;;;5084705;28;43054;-80
2024/01/06 11:04:37;;;;;;;;;;;17.70;58.80;;;;;;5082457;28;43112;-79
2024/01/06 11:07:03;;;;;;;;;;;17.70;58.90;;;;;;5067483;28;43448;-79
2024/01/06 11:09:31;;;;;;;;;;;17.70;58.80;;;;;;5083472;28;43045;-83
2024/01/06 11:11:57;;;;;;;;;;;17.70;58.90;;;;;;5084138;28;42851;-82
2024/01/06 11:14:24;;;;;;;;;;;17.70;58.90;;;;;;5079328;28;43028;-81
2024/01/06 11:16:50;;;;;;;;;;;17.70;58.90;;;;;;5084654;28;43120;-78
2024/01/06 11:19:34;;;;;;;;;;;17.70;58.80;;;;;;5083741;28;43158;-78
2024/01/06 11:22:19;;;;;;;;;;;17.70;58.80;;;;;;5081505;28;42942;-76
2024/01/06 11:24:47;;;;;;;;;;;17.70;58.80;;;;;;5066188;28;43224;-78
2024/01/06 11:27:17;;;;;;;;;;;17.70;58.80;;;;;;5069892;28;44087;-77
2024/01/06 11:29:43;;;;;;;;;;;17.70;58.40;;;;;;5058802;28;43997;-78
2024/01/06 11:32:20;;;;;;;;;;;17.70;58.80;;;;;;5073313;28;43061;-77
2024/01/06 11:34:57;;;;;;;;;;;17.70;58.70;;;;;;5076862;28;42960;-78
2024/01/06 11:37:34;;;;;;;;;;;17.70;58.80;;;;;;5079213;28;43999;-77
2024/01/06 11:40:00;;;;;;;;;;;17.70;58.80;;;;;;5081415;28;43025;-79
2024/01/06 11:42:31;;;;;;;;;;;17.70;58.80;;;;;;5079009;28;44175;-78
2024/01/06 11:45:01;;;;;;;;;;;17.70;58.80;;;;;;5079527;28;43041;-79
2024/01/06 11:47:28;;;;;;;;;;;17.70;58.80;;;;;;5074940;28;43942;-78
2024/01/06 11:49:55;;;;;;;;;;;17.70;58.80;;;;;;5082300;28;43253;-78
2024/01/06 11:52:20;;;;;;;;;;;17.70;58.80;;;;;;5074627;28;43328;-77
2024/01/06 11:54:46;;;;;;;;;;;17.70;58.80;;;;;;5071913;28;42972;-80
2024/01/06 11:57:12;;;;;;;;;;;17.70;59.90;;;;;;5082710;28;42901;-80
2024/01/06 11:59:37;;;;;;;;;;;17.60;60.40;;;;;;5074448;28;43260;-81
2024/01/06 12:02:03;;;;;;;;;;;17.70;61.40;;;;;;5080628;28;43971;-80
2024/01/06 12:04:29;;;;;;;;;;;17.70;60.80;;;;;;5079051;28;42936;-80
2024/01/06 12:07:04;;;;;;;;;;;17.70;60.80;;;;;;5085796;28;43094;-80
2024/01/06 12:09:30;;;;;;;;;;;17.70;61.50;;;;;;5080157;28;43105;-80
2024/01/06 12:12:02;;;;;;;;;;;17.70;61.00;;;;;;5082289;28;42983;-80
2024/01/06 12:14:28;;;;;;;;;;;17.80;61.50;;;;;;5072180;28;43459;-79
2024/01/06 12:16:57;;;;;;;;;;;17.80;61.70;;;;;;5077229;28;43055;-80
2024/01/06 12:19:23;;;;;;;;;;;17.80;61.10;;;;;;5072962;28;43142;-80
2024/01/06 12:21:49;;;;;;;;;;;17.80;61.80;;;;;;5076330;28;44138;-80
2024/01/06 12:24:20;;;;;;;;;;;17.80;62.10;;;;;;5081262;28;43453;-79
2024/01/06 12:26:46;;;;;;;;;;;17.80;61.30;;;;;;5080279;28;43100;-80
2024/01/06 12:29:12;;;;;;;;;;;17.90;61.70;;;;;;5083002;28;42938;-80
2024/01/06 12:31:38;;;;;;;;;;;17.80;61.80;;;;;;5083465;28;44077;-80
2024/01/06 12:34:04;;;;;;;;;;;17.80;61.60;;;;;;5083330;28;43068;-79
2024/01/06 12:36:30;;;;;;;;;;;17.80;61.60;;;;;;5079594;28;44516;-80
2024/01/06 12:38:59;;;;;;;;;;;17.80;61.60;;;;;;5083394;28;43064;-81
2024/01/06 12:41:24;;;;;;;;;;;17.90;61.50;;;;;;5084176;28;43045;-80
2024/01/06 12:43:50;;;;;;;;;;;17.90;61.70;;;;;;5083600;28;43227;-79
2024/01/06 12:46:15;;;;;;;;;;;17.80;61.10;;;;;;5055248;28;44007;-81
2024/01/06 12:48:41;;;;;;;;;;;17.90;61.30;;;;;;5083452;28;43432;-85
2024/01/06 12:51:06;;;;;;;;;;;17.80;61.20;;;;;;5082773;28;43035;-83
2024/01/06 12:53:32;;;;;;;;;;;17.90;62.40;;;;;;5071006;28;43037;-85
2024/01/06 12:55:58;;;;;;;;;;;17.90;61.60;;;;;;5070588;28;43490;-82
2024/01/06 12:58:23;;;;;;;;;;;17.90;61.60;;;;;;5063341;28;43077;-89
2024/01/06 13:00:49;;;;;;;;;;;17.90;62.50;;;;;;5072787;28;43124;-84
2024/01/06 13:03:14;;;;;;;;;;;17.90;62.40;;;;;;5078366;28;42982;-86
2024/01/06 13:05:40;;;;;;;;;;;17.90;62.50;;;;;;5081374;28;43040;-84
2024/01/06 13:08:06;;;;;;;;;;;17.90;62.60;;;;;;5081596;28;42927;-87
2024/01/06 13:10:31;;;;;;;;;;;17.90;62.50;;;;;;5082584;28;43887;-83
2024/01/06 13:12:57;;;;;;;;;;;17.90;62.60;;;;;;5083375;28;42942;-87
2024/01/06 13:15:22;;;;;;;;;;;17.90;62.00;;;;;;5081729;28;42975;-86
2024/01/06 13:17:49;;;;;;;;;;;18.00;62.80;;;;;;5083965;28;43113;-84
2024/01/06 13:20:16;;;;;;;;;;;18.00;63.00;;;;;;5071833;28;43535;-85
2024/01/06 13:22:41;;;;;;;;;;;18.00;62.90;;;;;;5082328;28;42993;-88
2024/01/06 13:25:08;;;;;;;;;;;18.00;62.80;;;;;;5081643;28;43139;-81
2024/01/06 13:27:34;;;;;;;;;;;18.00;62.90;;;;;;5079491;28;43140;-85
2024/01/06 13:29:59;;;;;;;;;;;18.00;63.00;;;;;;5081003;28;42962;-83
2024/01/06 13:32:26;;;;;;;;;;;18.00;63.10;;;;;;5080954;28;43048;-88
2024/01/06 13:34:55;;;;;;;;;;;18.00;63.10;;;;;;5080939;28;43558;-81
2024/01/06 13:37:22;;;;;;;;;;;18.00;63.20;;;;;;5077900;28;42996;-82
2024/01/06 13:39:48;;;;;;;;;;;18.00;63.80;;;;;;5079295;28;43555;-82
2024/01/06 13:42:13;;;;;;;;;;;18.00;63.70;;;;;;5081722;28;43263;-85
2024/01/06 13:44:39;;;;;;;;;;;18.10;63.80;;;;;;5079622;28;43152;-77
2024/01/06 13:47:04;;;;;;;;;;;18.10;64.60;;;;;;5082112;28;43127;-78
2024/01/06 13:49:30;;;;;;;;;;;18.10;64.30;;;;;;5083831;28;44217;-80
2024/01/06 13:51:56;;;;;;;;;;;18.10;63.90;;;;;;5079025;28;43001;-83
2024/01/06 13:54:21;;;;;;;;;;;18.10;63.60;;;;;;5076803;28;43551;-84
2024/01/06 13:56:47;;;;;;;;;;;18.00;63.50;;;;;;5084762;28;43210;-82
2024/01/06 13:59:12;;;;;;;;;;;18.10;65.40;;;;;;5085833;28;43523;-80
2024/01/06 14:01:39;;;;;;;;;;;18.10;64.00;;;;;;5075212;28;44720;-79
2024/01/06 14:04:05;;;;;;;;;;;18.10;64.50;;;;;;5078806;28;43360;-78
2024/01/06 14:06:31;;;;;;;;;;;18.10;63.80;;;;;;5082821;28;43071;-78
2024/01/06 14:08:57;;;;;;;;;;;18.20;64.40;;;;;;5083900;28;43255;-76